sensor_id;sensor_type;location;lat;lon;timestamp;P1;durP1;ratioP1;P2;durP2;ratioP2
24787;SDS011;12883;52.662;5.196;2022-07-21T00:01:50;10.40;;;10.40;;
24787;SDS011;12883;52.662;5.196;2022-07-21T00:04:17;10.75;;;10.75;;
24787;SDS011;12883;52.662;5.196;2022-07-21T00:06:43;11.90;;;11.82;;
24787;SDS011;12883;52.662;5.196;2022-07-21T00:09:10;10.80;;;10.80;;
24787;SDS011;12883;52.662;5.196;2022-07-21T00:11:36;11.77;;;11.68;;
24787;SDS011;12883;52.662;5.196;2022-07-21T00:14:02;10.95;;;10.95;;
24787;SDS011;12883;52.662;5.196;2022-07-21T00:16:28;10.80;;;10.80;;
24787;SDS011;12883;52.662;5.196;2022-07-21T00:18:53;11.00;;;11.00;;
24787;SDS011;12883;52.662;5.196;2022-07-21T00:21:19;10.43;;;10.43;;
24787;SDS011;12883;52.662;5.196;2022-07-21T00:23:45;11.93;;;11.82;;
24787;SDS011;12883;52.662;5.196;2022-07-21T00:26:10;10.68;;;10.57;;
24787;SDS011;12883;52.662;5.196;2022-07-21T00:28:36;10.77;;;10.77;;
24787;SDS011;12883;52.662;5.196;2022-07-21T00:31:01;10.18;;;10.18;;
24787;SDS011;12883;52.662;5.196;2022-07-21T00:33:27;10.98;;;10.90;;
24787;SDS011;12883;52.662;5.196;2022-07-21T00:35:53;10.90;;;10.90;;
24787;SDS011;12883;52.662;5.196;2022-07-21T00:38:18;11.40;;;11.40;;
24787;SDS011;12883;52.662;5.196;2022-07-21T00:40:43;10.80;;;10.80;;
24787;SDS011;12883;52.662;5.196;2022-07-21T00:43:09;10.50;;;10.50;;
24787;SDS011;12883;52.662;5.196;2022-07-21T00:45:35;12.00;;;11.98;;
24787;SDS011;12883;52.662;5.196;2022-07-21T00:48:00;11.38;;;11.38;;
24787;SDS011;12883;52.662;5.196;2022-07-21T00:50:26;14.07;;;13.98;;
24787;SDS011;12883;52.662;5.196;2022-07-21T00:52:51;13.50;;;13.48;;
24787;SDS011;12883;52.662;5.196;2022-07-21T00:55:18;12.98;;;12.95;;
24787;SDS011;12883;52.662;5.196;2022-07-21T00:57:44;14.48;;;14.38;;
24787;SDS011;12883;52.662;5.196;2022-07-21T01:00:15;13.35;;;13.25;;
24787;SDS011;12883;52.662;5.196;2022-07-21T01:02:42;12.85;;;12.85;;
24787;SDS011;12883;52.662;5.196;2022-07-21T01:05:09;13.57;;;13.57;;
24787;SDS011;12883;52.662;5.196;2022-07-21T01:07:43;14.77;;;14.68;;
24787;SDS011;12883;52.662;5.196;2022-07-21T01:10:11;13.15;;;13.10;;
24787;SDS011;12883;52.662;5.196;2022-07-21T01:12:39;13.77;;;13.68;;
24787;SDS011;12883;52.662;5.196;2022-07-21T01:15:05;12.57;;;12.57;;
24787;SDS011;12883;52.662;5.196;2022-07-21T01:17:33;12.70;;;12.70;;
24787;SDS011;12883;52.662;5.196;2022-07-21T01:20:00;14.45;;;14.35;;
24787;SDS011;12883;52.662;5.196;2022-07-21T01:22:30;15.07;;;14.98;;
24787;SDS011;12883;52.662;5.196;2022-07-21T01:24:57;14.85;;;14.75;;
24787;SDS011;12883;52.662;5.196;2022-07-21T01:27:24;15.52;;;15.43;;
24787;SDS011;12883;52.662;5.196;2022-07-21T01:29:51;15.27;;;15.20;;
24787;SDS011;12883;52.662;5.196;2022-07-21T01:32:16;16.52;;;16.42;;
24787;SDS011;12883;52.662;5.196;2022-07-21T01:34:42;15.85;;;15.75;;
24787;SDS011;12883;52.662;5.196;2022-07-21T01:37:07;15.82;;;15.73;;
24787;SDS011;12883;52.662;5.196;2022-07-21T01:39:32;15.95;;;15.85;;
24787;SDS011;12883;52.662;5.196;2022-07-21T01:42:16;16.05;;;16.00;;
24787;SDS011;12883;52.662;5.196;2022-07-21T01:44:42;16.33;;;16.23;;
24787;SDS011;12883;52.662;5.196;2022-07-21T01:47:08;16.55;;;16.45;;
24787;SDS011;12883;52.662;5.196;2022-07-21T01:49:33;16.33;;;16.23;;
24787;SDS011;12883;52.662;5.196;2022-07-21T01:51:59;16.08;;;15.98;;
24787;SDS011;12883;52.662;5.196;2022-07-21T01:54:25;16.13;;;16.02;;
24787;SDS011;12883;52.662;5.196;2022-07-21T01:56:51;16.48;;;16.38;;
24787;SDS011;12883;52.662;5.196;2022-07-21T01:59:17;17.60;;;17.50;;
24787;SDS011;12883;52.662;5.196;2022-07-21T02:01:43;16.13;;;16.02;;
24787;SDS011;12883;52.662;5.196;2022-07-21T02:04:09;15.70;;;15.60;;
24787;SDS011;12883;52.662;5.196;2022-07-21T02:06:35;14.10;;;14.10;;
24787;SDS011;12883;52.662;5.196;2022-07-21T02:09:00;15.95;;;15.85;;
24787;SDS011;12883;52.662;5.196;2022-07-21T02:11:25;16.83;;;16.73;;
24787;SDS011;12883;52.662;5.196;2022-07-21T02:13:52;15.30;;;15.20;;
24787;SDS011;12883;52.662;5.196;2022-07-21T02:16:17;15.93;;;15.82;;
24787;SDS011;12883;52.662;5.196;2022-07-21T02:18:43;15.90;;;15.85;;
24787;SDS011;12883;52.662;5.196;2022-07-21T02:21:09;15.93;;;15.82;;
24787;SDS011;12883;52.662;5.196;2022-07-21T02:23:34;16.90;;;16.80;;
24787;SDS011;12883;52.662;5.196;2022-07-21T02:26:00;17.15;;;17.05;;
24787;SDS011;12883;52.662;5.196;2022-07-21T02:28:26;16.95;;;16.85;;
24787;SDS011;12883;52.662;5.196;2022-07-21T02:30:53;16.13;;;16.08;;
24787;SDS011;12883;52.662;5.196;2022-07-21T02:33:19;17.45;;;17.35;;
24787;SDS011;12883;52.662;5.196;2022-07-21T02:35:45;17.98;;;17.88;;
24787;SDS011;12883;52.662;5.196;2022-07-21T02:38:11;17.02;;;16.92;;
24787;SDS011;12883;52.662;5.196;2022-07-21T02:40:37;18.48;;;18.38;;
24787;SDS011;12883;52.662;5.196;2022-07-21T02:43:03;18.33;;;18.23;;
24787;SDS011;12883;52.662;5.196;2022-07-21T02:45:30;18.42;;;18.33;;
24787;SDS011;12883;52.662;5.196;2022-07-21T02:50:24;19.13;;;19.02;;
24787;SDS011;12883;52.662;5.196;2022-07-21T02:52:55;19.65;;;19.55;;
24787;SDS011;12883;52.662;5.196;2022-07-21T02:55:22;20.17;;;20.08;;
24787;SDS011;12883;52.662;5.196;2022-07-21T02:57:48;19.52;;;19.42;;
24787;SDS011;12883;52.662;5.196;2022-07-21T03:00:14;18.85;;;18.75;;
24787;SDS011;12883;52.662;5.196;2022-07-21T03:02:40;20.38;;;20.27;;
24787;SDS011;12883;52.662;5.196;2022-07-21T03:05:06;21.23;;;21.13;;
24787;SDS011;12883;52.662;5.196;2022-07-21T03:07:32;21.15;;;21.05;;
24787;SDS011;12883;52.662;5.196;2022-07-21T03:09:59;21.90;;;21.80;;
24787;SDS011;12883;52.662;5.196;2022-07-21T03:12:25;24.60;;;24.50;;
24787;SDS011;12883;52.662;5.196;2022-07-21T03:14:50;24.33;;;24.23;;
24787;SDS011;12883;52.662;5.196;2022-07-21T03:17:16;25.98;;;25.88;;
24787;SDS011;12883;52.662;5.196;2022-07-21T03:19:41;26.02;;;25.92;;
24787;SDS011;12883;52.662;5.196;2022-07-21T03:22:07;27.27;;;27.17;;
24787;SDS011;12883;52.662;5.196;2022-07-21T03:24:32;28.10;;;28.00;;
24787;SDS011;12883;52.662;5.196;2022-07-21T03:26:58;26.63;;;26.52;;
24787;SDS011;12883;52.662;5.196;2022-07-21T03:29:23;27.65;;;27.55;;
24787;SDS011;12883;52.662;5.196;2022-07-21T03:31:49;28.73;;;28.63;;
24787;SDS011;12883;52.662;5.196;2022-07-21T03:34:14;28.65;;;28.55;;
24787;SDS011;12883;52.662;5.196;2022-07-21T03:36:40;28.77;;;28.67;;
24787;SDS011;12883;52.662;5.196;2022-07-21T03:39:06;30.35;;;30.25;;
24787;SDS011;12883;52.662;5.196;2022-07-21T03:41:31;28.13;;;28.02;;
24787;SDS011;12883;52.662;5.196;2022-07-21T03:43:57;30.38;;;30.27;;
24787;SDS011;12883;52.662;5.196;2022-07-21T03:46:22;30.27;;;30.17;;
24787;SDS011;12883;52.662;5.196;2022-07-21T03:48:48;31.50;;;31.40;;
24787;SDS011;12883;52.662;5.196;2022-07-21T03:51:13;31.63;;;31.52;;
24787;SDS011;12883;52.662;5.196;2022-07-21T03:53:39;29.33;;;29.23;;
24787;SDS011;12883;52.662;5.196;2022-07-21T03:56:04;31.85;;;31.67;;
24787;SDS011;12883;52.662;5.196;2022-07-21T03:58:30;30.98;;;30.88;;
24787;SDS011;12883;52.662;5.196;2022-07-21T04:00:55;31.70;;;31.60;;
24787;SDS011;12883;52.662;5.196;2022-07-21T04:03:21;33.17;;;33.08;;
24787;SDS011;12883;52.662;5.196;2022-07-21T04:05:46;32.45;;;32.35;;
24787;SDS011;12883;52.662;5.196;2022-07-21T04:08:12;32.72;;;32.63;;
24787;SDS011;12883;52.662;5.196;2022-07-21T04:10:38;34.50;;;34.30;;
24787;SDS011;12883;52.662;5.196;2022-07-21T04:13:06;34.22;;;34.13;;
24787;SDS011;12883;52.662;5.196;2022-07-21T04:15:33;34.60;;;34.50;;
24787;SDS011;12883;52.662;5.196;2022-07-21T04:17:59;36.40;;;36.20;;
24787;SDS011;12883;52.662;5.196;2022-07-21T04:20:24;37.17;;;37.00;;
24787;SDS011;12883;52.662;5.196;2022-07-21T04:22:50;38.55;;;38.35;;
24787;SDS011;12883;52.662;5.196;2022-07-21T04:25:17;39.78;;;39.58;;
24787;SDS011;12883;52.662;5.196;2022-07-21T04:27:43;39.03;;;38.83;;
24787;SDS011;12883;52.662;5.196;2022-07-21T04:30:11;38.90;;;38.70;;
24787;SDS011;12883;52.662;5.196;2022-07-21T04:32:39;40.97;;;40.78;;
24787;SDS011;12883;52.662;5.196;2022-07-21T04:35:05;40.55;;;40.35;;
24787;SDS011;12883;52.662;5.196;2022-07-21T04:37:31;41.30;;;41.10;;
24787;SDS011;12883;52.662;5.196;2022-07-21T04:39:56;43.78;;;43.58;;
24787;SDS011;12883;52.662;5.196;2022-07-21T04:42:22;42.00;;;41.80;;
24787;SDS011;12883;52.662;5.196;2022-07-21T04:44:48;43.80;;;43.60;;
24787;SDS011;12883;52.662;5.196;2022-07-21T04:47:13;42.80;;;42.60;;
24787;SDS011;12883;52.662;5.196;2022-07-21T04:49:38;41.42;;;41.22;;
24787;SDS011;12883;52.662;5.196;2022-07-21T04:52:04;42.63;;;42.42;;
24787;SDS011;12883;52.662;5.196;2022-07-21T04:54:29;42.83;;;42.63;;
24787;SDS011;12883;52.662;5.196;2022-07-21T04:56:55;44.45;;;44.25;;
24787;SDS011;12883;52.662;5.196;2022-07-21T04:59:20;44.28;;;44.08;;
24787;SDS011;12883;52.662;5.196;2022-07-21T05:01:46;43.50;;;43.30;;
24787;SDS011;12883;52.662;5.196;2022-07-21T05:04:12;43.50;;;43.30;;
24787;SDS011;12883;52.662;5.196;2022-07-21T05:06:39;43.25;;;43.05;;
24787;SDS011;12883;52.662;5.196;2022-07-21T05:09:04;42.08;;;41.88;;
24787;SDS011;12883;52.662;5.196;2022-07-21T05:11:30;41.00;;;40.80;;
24787;SDS011;12883;52.662;5.196;2022-07-21T05:13:55;41.17;;;40.97;;
24787;SDS011;12883;52.662;5.196;2022-07-21T05:16:22;39.95;;;39.75;;
24787;SDS011;12883;52.662;5.196;2022-07-21T05:18:47;39.75;;;39.55;;
24787;SDS011;12883;52.662;5.196;2022-07-21T05:21:13;40.25;;;40.05;;
24787;SDS011;12883;52.662;5.196;2022-07-21T05:23:38;39.55;;;39.35;;
24787;SDS011;12883;52.662;5.196;2022-07-21T05:26:04;38.95;;;38.75;;
24787;SDS011;12883;52.662;5.196;2022-07-21T05:28:29;37.60;;;37.40;;
24787;SDS011;12883;52.662;5.196;2022-07-21T05:30:56;38.65;;;38.45;;
24787;SDS011;12883;52.662;5.196;2022-07-21T05:33:21;39.17;;;38.97;;
24787;SDS011;12883;52.662;5.196;2022-07-21T05:35:47;36.55;;;36.35;;
24787;SDS011;12883;52.662;5.196;2022-07-21T05:38:12;37.17;;;36.97;;
24787;SDS011;12883;52.662;5.196;2022-07-21T05:40:38;38.42;;;38.22;;
24787;SDS011;12883;52.662;5.196;2022-07-21T05:43:04;38.20;;;38.00;;
24787;SDS011;12883;52.662;5.196;2022-07-21T05:45:29;37.35;;;37.15;;
24787;SDS011;12883;52.662;5.196;2022-07-21T05:47:55;37.60;;;37.40;;
24787;SDS011;12883;52.662;5.196;2022-07-21T05:50:20;37.17;;;36.97;;
24787;SDS011;12883;52.662;5.196;2022-07-21T05:52:45;37.42;;;37.22;;
24787;SDS011;12883;52.662;5.196;2022-07-21T05:55:11;34.55;;;34.35;;
24787;SDS011;12883;52.662;5.196;2022-07-21T05:57:37;37.13;;;36.92;;
24787;SDS011;12883;52.662;5.196;2022-07-21T06:00:03;35.42;;;35.22;;
24787;SDS011;12883;52.662;5.196;2022-07-21T06:02:29;38.85;;;38.65;;
24787;SDS011;12883;52.662;5.196;2022-07-21T06:04:56;36.78;;;36.58;;
24787;SDS011;12883;52.662;5.196;2022-07-21T06:07:22;37.95;;;37.75;;
24787;SDS011;12883;52.662;5.196;2022-07-21T06:09:47;37.67;;;37.47;;
24787;SDS011;12883;52.662;5.196;2022-07-21T06:15:27;38.70;;;38.50;;
24787;SDS011;12883;52.662;5.196;2022-07-21T06:17:52;39.85;;;39.65;;
24787;SDS011;12883;52.662;5.196;2022-07-21T06:20:17;39.78;;;39.58;;
24787;SDS011;12883;52.662;5.196;2022-07-21T06:22:43;38.92;;;38.72;;
24787;SDS011;12883;52.662;5.196;2022-07-21T06:25:08;39.28;;;39.08;;
24787;SDS011;12883;52.662;5.196;2022-07-21T06:27:33;39.38;;;39.17;;
24787;SDS011;12883;52.662;5.196;2022-07-21T06:29:59;40.92;;;40.72;;
24787;SDS011;12883;52.662;5.196;2022-07-21T06:32:25;39.92;;;39.72;;
24787;SDS011;12883;52.662;5.196;2022-07-21T06:34:51;38.42;;;38.22;;
24787;SDS011;12883;52.662;5.196;2022-07-21T06:37:16;37.88;;;37.67;;
24787;SDS011;12883;52.662;5.196;2022-07-21T06:39:41;39.13;;;38.92;;
24787;SDS011;12883;52.662;5.196;2022-07-21T06:42:07;38.97;;;38.78;;
24787;SDS011;12883;52.662;5.196;2022-07-21T06:44:33;38.33;;;38.13;;
24787;SDS011;12883;52.662;5.196;2022-07-21T06:46:58;38.75;;;38.55;;
24787;SDS011;12883;52.662;5.196;2022-07-21T06:49:29;38.95;;;38.75;;
24787;SDS011;12883;52.662;5.196;2022-07-21T06:51:57;38.38;;;38.17;;
24787;SDS011;12883;52.662;5.196;2022-07-21T06:54:22;37.47;;;37.28;;
24787;SDS011;12883;52.662;5.196;2022-07-21T06:56:48;36.90;;;36.70;;
24787;SDS011;12883;52.662;5.196;2022-07-21T06:59:14;37.15;;;36.95;;
24787;SDS011;12883;52.662;5.196;2022-07-21T07:01:39;36.90;;;36.70;;
24787;SDS011;12883;52.662;5.196;2022-07-21T07:04:05;36.30;;;36.10;;
24787;SDS011;12883;52.662;5.196;2022-07-21T07:06:30;36.80;;;36.60;;
24787;SDS011;12883;52.662;5.196;2022-07-21T07:08:56;38.47;;;38.28;;
24787;SDS011;12883;52.662;5.196;2022-07-21T07:11:21;38.25;;;38.05;;
24787;SDS011;12883;52.662;5.196;2022-07-21T07:13:46;36.53;;;36.33;;
24787;SDS011;12883;52.662;5.196;2022-07-21T07:16:12;37.65;;;37.45;;
24787;SDS011;12883;52.662;5.196;2022-07-21T07:18:37;39.05;;;38.85;;
24787;SDS011;12883;52.662;5.196;2022-07-21T07:21:03;38.80;;;38.60;;
24787;SDS011;12883;52.662;5.196;2022-07-21T07:23:28;37.85;;;37.65;;
24787;SDS011;12883;52.662;5.196;2022-07-21T07:25:54;38.00;;;37.80;;
24787;SDS011;12883;52.662;5.196;2022-07-21T07:28:19;39.60;;;39.40;;
24787;SDS011;12883;52.662;5.196;2022-07-21T07:30:45;39.83;;;39.63;;
24787;SDS011;12883;52.662;5.196;2022-07-21T07:33:10;39.42;;;39.22;;
24787;SDS011;12883;52.662;5.196;2022-07-21T07:35:35;38.65;;;38.45;;
24787;SDS011;12883;52.662;5.196;2022-07-21T07:38:01;39.00;;;38.80;;
24787;SDS011;12883;52.662;5.196;2022-07-21T07:40:27;38.67;;;38.47;;
24787;SDS011;12883;52.662;5.196;2022-07-21T07:42:52;39.10;;;38.90;;
24787;SDS011;12883;52.662;5.196;2022-07-21T07:45:18;37.55;;;37.35;;
24787;SDS011;12883;52.662;5.196;2022-07-21T07:47:43;40.10;;;39.90;;
24787;SDS011;12883;52.662;5.196;2022-07-21T07:50:10;39.05;;;38.85;;
24787;SDS011;12883;52.662;5.196;2022-07-21T07:52:38;40.63;;;40.42;;
24787;SDS011;12883;52.662;5.196;2022-07-21T07:55:04;39.97;;;39.78;;
24787;SDS011;12883;52.662;5.196;2022-07-21T07:57:33;40.28;;;40.08;;
24787;SDS011;12883;52.662;5.196;2022-07-21T08:00:00;41.28;;;41.08;;
24787;SDS011;12883;52.662;5.196;2022-07-21T08:02:26;41.17;;;40.97;;
24787;SDS011;12883;52.662;5.196;2022-07-21T08:04:51;40.40;;;40.20;;
24787;SDS011;12883;52.662;5.196;2022-07-21T08:07:16;37.60;;;37.40;;
24787;SDS011;12883;52.662;5.196;2022-07-21T08:09:42;37.47;;;37.28;;
24787;SDS011;12883;52.662;5.196;2022-07-21T08:12:07;33.95;;;33.75;;
24787;SDS011;12883;52.662;5.196;2022-07-21T08:14:33;36.20;;;36.00;;
24787;SDS011;12883;52.662;5.196;2022-07-21T08:16:58;32.65;;;32.47;;
24787;SDS011;12883;52.662;5.196;2022-07-21T08:19:25;32.35;;;32.25;;
24787;SDS011;12883;52.662;5.196;2022-07-21T08:21:51;31.05;;;30.95;;
24787;SDS011;12883;52.662;5.196;2022-07-21T08:24:16;28.85;;;28.75;;
24787;SDS011;12883;52.662;5.196;2022-07-21T08:26:42;28.67;;;28.58;;
24787;SDS011;12883;52.662;5.196;2022-07-21T08:29:07;28.50;;;28.40;;
24787;SDS011;12883;52.662;5.196;2022-07-21T08:31:33;26.77;;;26.67;;
24787;SDS011;12883;52.662;5.196;2022-07-21T08:33:58;26.35;;;26.25;;
24787;SDS011;12883;52.662;5.196;2022-07-21T08:36:23;23.63;;;23.52;;
24787;SDS011;12883;52.662;5.196;2022-07-21T08:38:49;21.70;;;21.60;;
24787;SDS011;12883;52.662;5.196;2022-07-21T08:41:14;21.52;;;21.42;;
24787;SDS011;12883;52.662;5.196;2022-07-21T08:43:40;21.73;;;21.63;;
24787;SDS011;12883;52.662;5.196;2022-07-21T08:46:05;22.73;;;22.63;;
24787;SDS011;12883;52.662;5.196;2022-07-21T08:48:31;22.40;;;22.30;;
24787;SDS011;12883;52.662;5.196;2022-07-21T08:50:56;22.63;;;22.52;;
24787;SDS011;12883;52.662;5.196;2022-07-21T08:53:23;21.85;;;21.75;;
24787;SDS011;12883;52.662;5.196;2022-07-21T08:55:49;22.00;;;21.90;;
24787;SDS011;12883;52.662;5.196;2022-07-21T08:58:15;21.77;;;21.67;;
24787;SDS011;12883;52.662;5.196;2022-07-21T09:00:42;21.88;;;21.77;;
24787;SDS011;12883;52.662;5.196;2022-07-21T09:05:35;21.10;;;21.00;;
24787;SDS011;12883;52.662;5.196;2022-07-21T09:08:00;19.98;;;19.88;;
24787;SDS011;12883;52.662;5.196;2022-07-21T09:10:27;20.58;;;20.48;;
24787;SDS011;12883;52.662;5.196;2022-07-21T09:12:55;20.10;;;20.00;;
24787;SDS011;12883;52.662;5.196;2022-07-21T09:15:23;19.98;;;19.88;;
24787;SDS011;12883;52.662;5.196;2022-07-21T09:18:03;20.88;;;20.77;;
24787;SDS011;12883;52.662;5.196;2022-07-21T09:20:32;17.98;;;17.90;;
24787;SDS011;12883;52.662;5.196;2022-07-21T09:23:11;21.23;;;21.13;;
24787;SDS011;12883;52.662;5.196;2022-07-21T09:25:42;19.70;;;19.60;;
24787;SDS011;12883;52.662;5.196;2022-07-21T09:33:30;16.48;;;16.40;;
24787;SDS011;12883;52.662;5.196;2022-07-21T09:36:16;13.60;;;13.60;;
24787;SDS011;12883;52.662;5.196;2022-07-21T09:38:44;13.15;;;13.15;;
24787;SDS011;12883;52.662;5.196;2022-07-21T09:41:13;12.90;;;12.90;;
24787;SDS011;12883;52.662;5.196;2022-07-21T09:46:10;10.32;;;10.32;;
24787;SDS011;12883;52.662;5.196;2022-07-21T09:48:42;9.18;;;9.18;;
24787;SDS011;12883;52.662;5.196;2022-07-21T09:56:28;7.93;;;7.93;;
24787;SDS011;12883;52.662;5.196;2022-07-21T09:58:55;6.90;;;6.90;;
24787;SDS011;12883;52.662;5.196;2022-07-21T10:01:22;6.22;;;6.22;;
24787;SDS011;12883;52.662;5.196;2022-07-21T10:03:49;4.88;;;4.88;;
24787;SDS011;12883;52.662;5.196;2022-07-21T10:06:16;5.68;;;5.68;;
24787;SDS011;12883;52.662;5.196;2022-07-21T10:08:43;4.47;;;4.47;;
24787;SDS011;12883;52.662;5.196;2022-07-21T10:11:09;4.85;;;4.85;;
24787;SDS011;12883;52.662;5.196;2022-07-21T10:13:35;4.57;;;4.57;;
24787;SDS011;12883;52.662;5.196;2022-07-21T10:16:02;4.68;;;4.68;;
24787;SDS011;12883;52.662;5.196;2022-07-21T10:18:28;5.47;;;5.47;;
24787;SDS011;12883;52.662;5.196;2022-07-21T10:21:23;5.80;;;5.80;;
24787;SDS011;12883;52.662;5.196;2022-07-21T10:23:56;6.72;;;6.72;;
24787;SDS011;12883;52.662;5.196;2022-07-21T10:26:22;6.50;;;6.50;;
24787;SDS011;12883;52.662;5.196;2022-07-21T10:28:48;7.15;;;7.15;;
24787;SDS011;12883;52.662;5.196;2022-07-21T10:36:08;7.53;;;7.53;;
24787;SDS011;12883;52.662;5.196;2022-07-21T10:38:34;7.75;;;7.75;;
24787;SDS011;12883;52.662;5.196;2022-07-21T10:41:01;8.10;;;8.10;;
24787;SDS011;12883;52.662;5.196;2022-07-21T10:45:54;8.13;;;8.13;;
24787;SDS011;12883;52.662;5.196;2022-07-21T10:51:02;9.07;;;9.07;;
24787;SDS011;12883;52.662;5.196;2022-07-21T10:53:31;10.10;;;10.10;;
24787;SDS011;12883;52.662;5.196;2022-07-21T10:55:57;9.93;;;9.93;;
24787;SDS011;12883;52.662;5.196;2022-07-21T11:01:04;10.55;;;10.55;;
24787;SDS011;12883;52.662;5.196;2022-07-21T11:06:20;9.82;;;9.82;;
24787;SDS011;12883;52.662;5.196;2022-07-21T11:09:35;9.95;;;9.95;;
24787;SDS011;12883;52.662;5.196;2022-07-21T11:11:38;9.65;;;9.65;;
24787;SDS011;12883;52.662;5.196;2022-07-21T11:14:13;9.55;;;9.55;;
24787;SDS011;12883;52.662;5.196;2022-07-21T11:22:21;9.30;;;9.30;;
24787;SDS011;12883;52.662;5.196;2022-07-21T11:24:58;8.95;;;8.95;;
24787;SDS011;12883;52.662;5.196;2022-07-21T11:27:26;9.07;;;9.07;;
24787;SDS011;12883;52.662;5.196;2022-07-21T11:29:55;10.13;;;10.13;;
24787;SDS011;12883;52.662;5.196;2022-07-21T11:32:23;9.52;;;9.52;;
24787;SDS011;12883;52.662;5.196;2022-07-21T11:34:50;10.10;;;10.10;;
24787;SDS011;12883;52.662;5.196;2022-07-21T11:37:19;9.57;;;9.57;;
24787;SDS011;12883;52.662;5.196;2022-07-21T11:39:54;8.52;;;8.52;;
24787;SDS011;12883;52.662;5.196;2022-07-21T11:42:20;8.55;;;8.55;;
24787;SDS011;12883;52.662;5.196;2022-07-21T11:44:46;9.07;;;9.07;;
24787;SDS011;12883;52.662;5.196;2022-07-21T11:47:13;9.60;;;9.60;;
24787;SDS011;12883;52.662;5.196;2022-07-21T11:49:39;9.35;;;9.35;;
24787;SDS011;12883;52.662;5.196;2022-07-21T11:52:07;8.95;;;8.95;;
24787;SDS011;12883;52.662;5.196;2022-07-21T11:54:44;9.23;;;9.20;;
24787;SDS011;12883;52.662;5.196;2022-07-21T11:57:12;9.15;;;9.15;;
24787;SDS011;12883;52.662;5.196;2022-07-21T11:59:38;8.68;;;8.68;;
24787;SDS011;12883;52.662;5.196;2022-07-21T12:04:44;8.88;;;8.88;;
24787;SDS011;12883;52.662;5.196;2022-07-21T12:09:42;7.60;;;7.60;;
24787;SDS011;12883;52.662;5.196;2022-07-21T12:12:09;7.32;;;7.32;;
24787;SDS011;12883;52.662;5.196;2022-07-21T12:14:39;7.95;;;7.95;;
24787;SDS011;12883;52.662;5.196;2022-07-21T12:17:05;7.32;;;7.32;;
24787;SDS011;12883;52.662;5.196;2022-07-21T12:19:31;7.28;;;7.28;;
24787;SDS011;12883;52.662;5.196;2022-07-21T12:21:56;6.93;;;6.93;;
24787;SDS011;12883;52.662;5.196;2022-07-21T12:24:22;7.28;;;7.28;;
24787;SDS011;12883;52.662;5.196;2022-07-21T12:27:11;7.45;;;7.45;;
24787;SDS011;12883;52.662;5.196;2022-07-21T12:29:37;7.47;;;7.47;;
24787;SDS011;12883;52.662;5.196;2022-07-21T12:32:02;7.72;;;7.72;;
24787;SDS011;12883;52.662;5.196;2022-07-21T12:34:28;7.97;;;7.97;;
24787;SDS011;12883;52.662;5.196;2022-07-21T12:36:53;8.27;;;8.27;;
24787;SDS011;12883;52.662;5.196;2022-07-21T12:39:27;9.45;;;9.45;;
24787;SDS011;12883;52.662;5.196;2022-07-21T12:42:26;8.43;;;8.43;;
24787;SDS011;12883;52.662;5.196;2022-07-21T12:44:54;9.18;;;9.18;;
24787;SDS011;12883;52.662;5.196;2022-07-21T12:47:20;9.15;;;9.15;;
24787;SDS011;12883;52.662;5.196;2022-07-21T12:49:54;9.57;;;9.57;;
24787;SDS011;12883;52.662;5.196;2022-07-21T12:52:31;10.43;;;10.43;;
24787;SDS011;12883;52.662;5.196;2022-07-21T12:54:58;9.80;;;9.80;;
24787;SDS011;12883;52.662;5.196;2022-07-21T12:57:29;9.23;;;9.23;;
24787;SDS011;12883;52.662;5.196;2022-07-21T12:59:57;9.40;;;9.40;;
24787;SDS011;12883;52.662;5.196;2022-07-21T13:02:24;9.20;;;9.20;;
24787;SDS011;12883;52.662;5.196;2022-07-21T13:04:50;9.23;;;9.23;;
24787;SDS011;12883;52.662;5.196;2022-07-21T13:07:17;9.63;;;9.63;;
24787;SDS011;12883;52.662;5.196;2022-07-21T13:09:42;9.43;;;9.43;;
24787;SDS011;12883;52.662;5.196;2022-07-21T13:12:10;10.65;;;10.65;;
24787;SDS011;12883;52.662;5.196;2022-07-21T13:14:36;10.38;;;10.38;;
24787;SDS011;12883;52.662;5.196;2022-07-21T13:17:02;9.27;;;9.27;;
24787;SDS011;12883;52.662;5.196;2022-07-21T13:19:27;9.38;;;9.38;;
24787;SDS011;12883;52.662;5.196;2022-07-21T13:21:53;8.50;;;8.50;;
24787;SDS011;12883;52.662;5.196;2022-07-21T13:24:18;9.02;;;9.02;;
24787;SDS011;12883;52.662;5.196;2022-07-21T13:26:44;8.73;;;8.73;;
24787;SDS011;12883;52.662;5.196;2022-07-21T13:29:10;8.10;;;8.10;;
24787;SDS011;12883;52.662;5.196;2022-07-21T13:31:35;9.00;;;9.00;;
24787;SDS011;12883;52.662;5.196;2022-07-21T13:34:02;9.90;;;9.90;;
24787;SDS011;12883;52.662;5.196;2022-07-21T13:36:28;9.60;;;9.60;;
24787;SDS011;12883;52.662;5.196;2022-07-21T13:38:54;9.40;;;9.40;;
24787;SDS011;12883;52.662;5.196;2022-07-21T13:41:19;8.68;;;8.68;;
24787;SDS011;12883;52.662;5.196;2022-07-21T13:43:45;8.68;;;8.68;;
24787;SDS011;12883;52.662;5.196;2022-07-21T13:46:10;7.82;;;7.82;;
24787;SDS011;12883;52.662;5.196;2022-07-21T13:48:36;7.50;;;7.50;;
24787;SDS011;12883;52.662;5.196;2022-07-21T13:51:02;7.20;;;7.20;;
24787;SDS011;12883;52.662;5.196;2022-07-21T13:53:28;8.20;;;8.20;;
24787;SDS011;12883;52.662;5.196;2022-07-21T13:55:53;8.82;;;8.82;;
24787;SDS011;12883;52.662;5.196;2022-07-21T13:58:19;9.35;;;9.35;;
24787;SDS011;12883;52.662;5.196;2022-07-21T14:00:44;9.13;;;9.13;;
24787;SDS011;12883;52.662;5.196;2022-07-21T14:03:10;8.63;;;8.63;;
24787;SDS011;12883;52.662;5.196;2022-07-21T14:05:35;8.88;;;8.88;;
24787;SDS011;12883;52.662;5.196;2022-07-21T14:08:01;9.30;;;9.30;;
24787;SDS011;12883;52.662;5.196;2022-07-21T14:10:26;9.02;;;9.02;;
24787;SDS011;12883;52.662;5.196;2022-07-21T14:12:52;9.57;;;9.57;;
24787;SDS011;12883;52.662;5.196;2022-07-21T14:15:17;10.00;;;10.00;;
24787;SDS011;12883;52.662;5.196;2022-07-21T14:17:42;9.25;;;9.25;;
24787;SDS011;12883;52.662;5.196;2022-07-21T14:20:08;10.13;;;10.13;;
24787;SDS011;12883;52.662;5.196;2022-07-21T14:22:33;10.18;;;10.18;;
24787;SDS011;12883;52.662;5.196;2022-07-21T14:24:59;10.48;;;10.48;;
24787;SDS011;12883;52.662;5.196;2022-07-21T14:27:43;10.18;;;10.18;;
24787;SDS011;12883;52.662;5.196;2022-07-21T14:30:08;8.80;;;8.80;;
24787;SDS011;12883;52.662;5.196;2022-07-21T14:32:34;8.20;;;8.20;;
24787;SDS011;12883;52.662;5.196;2022-07-21T14:34:59;6.18;;;6.18;;
24787;SDS011;12883;52.662;5.196;2022-07-21T14:37:25;4.78;;;4.78;;
24787;SDS011;12883;52.662;5.196;2022-07-21T14:39:50;2.50;;;2.50;;
24787;SDS011;12883;52.662;5.196;2022-07-21T14:42:16;2.50;;;2.50;;
24787;SDS011;12883;52.662;5.196;2022-07-21T14:44:42;2.22;;;2.22;;
24787;SDS011;12883;52.662;5.196;2022-07-21T14:47:08;2.55;;;2.55;;
24787;SDS011;12883;52.662;5.196;2022-07-21T14:49:34;2.58;;;2.58;;
24787;SDS011;12883;52.662;5.196;2022-07-21T14:52:00;2.30;;;2.30;;
24787;SDS011;12883;52.662;5.196;2022-07-21T14:54:26;2.80;;;2.80;;
24787;SDS011;12883;52.662;5.196;2022-07-21T14:56:51;3.47;;;3.47;;
24787;SDS011;12883;52.662;5.196;2022-07-21T14:59:16;3.47;;;3.47;;
24787;SDS011;12883;52.662;5.196;2022-07-21T15:01:42;3.10;;;3.10;;
24787;SDS011;12883;52.662;5.196;2022-07-21T15:04:08;3.13;;;3.13;;
24787;SDS011;12883;52.662;5.196;2022-07-21T15:06:33;3.33;;;3.33;;
24787;SDS011;12883;52.662;5.196;2022-07-21T15:08:59;3.97;;;3.97;;
24787;SDS011;12883;52.662;5.196;2022-07-21T15:11:24;2.60;;;2.60;;
24787;SDS011;12883;52.662;5.196;2022-07-21T15:13:50;3.88;;;3.88;;